createdAt,value
2022-08-26T00:01:38.819Z,15.65
2022-08-26T00:04:25.986Z,14.50
2022-08-26T00:07:12.290Z,16.15
2022-08-26T00:09:59.079Z,14.95
2022-08-26T00:12:46.291Z,14.98
2022-08-26T00:15:33.157Z,16.08
2022-08-26T00:18:22.198Z,14.73
2022-08-26T00:21:08.957Z,17.50
2022-08-26T00:23:54.985Z,16.67
2022-08-26T00:26:41.550Z,15.57
2022-08-26T00:29:27.783Z,17.25
2022-08-26T00:32:13.556Z,15.43
2022-08-26T00:35:00.542Z,15.48
2022-08-26T00:37:46.882Z,16.92
2022-08-26T00:40:36.158Z,16.75
2022-08-26T00:43:23.195Z,15.40
2022-08-26T00:46:20.709Z,15.60
2022-08-26T00:49:15.477Z,16.20
2022-08-26T00:52:05.769Z,15.75
2022-08-26T00:55:07.678Z,15.55
2022-08-26T00:57:53.808Z,16.70
2022-08-26T01:00:40.213Z,15.70
2022-08-26T01:03:28.195Z,16.33
2022-08-26T01:06:14.479Z,15.88
2022-08-26T01:09:00.454Z,15.45
2022-08-26T01:11:47.944Z,16.38
2022-08-26T01:14:35.714Z,16.88
2022-08-26T01:17:22.938Z,16.83
2022-08-26T01:20:24.189Z,16.75
2022-08-26T01:23:11.420Z,15.90
2022-08-26T01:26:01.224Z,16.60
2022-08-26T01:28:50.591Z,16.67
2022-08-26T01:31:44.532Z,16.10
2022-08-26T01:34:36.724Z,16.30
2022-08-26T01:37:27.147Z,17.52
2022-08-26T01:40:17.637Z,16.10
2022-08-26T01:43:06.875Z,16.10
2022-08-26T01:45:55.005Z,16.15
2022-08-26T01:48:42.936Z,15.70
2022-08-26T01:51:29.779Z,16.40
2022-08-26T01:54:15.692Z,16.90
2022-08-26T01:57:02.171Z,16.77
2022-08-26T01:59:50.258Z,16.65
2022-08-26T02:02:37.132Z,17.20
2022-08-26T02:05:23.397Z,17.25
2022-08-26T02:08:10.466Z,15.77
2022-08-26T02:10:56.472Z,16.58
2022-08-26T02:13:46.284Z,15.88
2022-08-26T02:16:36.911Z,16.40
2022-08-26T02:19:27.873Z,16.17
2022-08-26T02:22:16.956Z,16.80
2022-08-26T02:25:45.026Z,16.40
2022-08-26T02:28:34.786Z,15.98
2022-08-26T02:31:20.776Z,16.35
2022-08-26T02:34:15.303Z,17.25
2022-08-26T02:37:05.371Z,16.60
2022-08-26T02:39:51.583Z,16.52
2022-08-26T02:42:38.464Z,17.52
2022-08-26T02:45:26.306Z,17.25
2022-08-26T02:48:16.183Z,17.13
2022-08-26T02:53:50.370Z,17.48
2022-08-26T02:56:37.528Z,18.00
2022-08-26T02:59:24.407Z,18.55
2022-08-26T03:02:11.404Z,17.75
2022-08-26T03:05:02.411Z,18.17
2022-08-26T03:07:49.168Z,17.85
2022-08-26T03:10:35.306Z,17.05
2022-08-26T03:13:21.105Z,17.10
2022-08-26T03:16:08.028Z,19.23
2022-08-26T03:18:53.876Z,18.23
2022-08-26T03:21:40.258Z,18.42
2022-08-26T03:24:26.764Z,18.48
2022-08-26T03:27:13.608Z,19.17
2022-08-26T03:30:19.072Z,18.63
2022-08-26T03:33:07.446Z,17.45
2022-08-26T03:35:54.159Z,18.70
2022-08-26T03:38:40.323Z,18.42
2022-08-26T03:41:26.508Z,18.80
2022-08-26T03:44:13.120Z,18.73
2022-08-26T03:46:59.178Z,18.75
2022-08-26T03:49:45.147Z,19.52
2022-08-26T03:52:31.370Z,19.95
2022-08-26T03:55:18.258Z,20.10
2022-08-26T03:58:04.683Z,20.88
2022-08-26T04:00:55.714Z,20.75
2022-08-26T04:04:00.891Z,19.70
2022-08-26T04:06:46.713Z,20.80
2022-08-26T04:09:32.564Z,20.70
2022-08-26T04:12:21.624Z,20.08
2022-08-26T04:15:10.742Z,19.15
2022-08-26T04:17:57.387Z,20.60
2022-08-26T04:20:43.738Z,19.15
2022-08-26T04:23:29.711Z,19.60
2022-08-26T04:26:16.960Z,19.45
2022-08-26T04:29:05.616Z,18.92
2022-08-26T04:31:55.768Z,19.55
2022-08-26T04:34:41.814Z,19.08
2022-08-26T04:37:28.031Z,20.65
2022-08-26T04:40:14.018Z,19.00
2022-08-26T04:43:00.310Z,18.88
2022-08-26T04:45:46.220Z,18.92
2022-08-26T04:48:33.921Z,18.83
2022-08-26T04:51:21.003Z,19.77
2022-08-26T04:54:07.591Z,17.92
2022-08-26T04:56:53.920Z,18.55
2022-08-26T04:59:40.336Z,18.27
2022-08-26T05:02:26.466Z,19.67
2022-08-26T05:05:13.713Z,18.35
2022-08-26T05:07:59.833Z,19.60
2022-08-26T05:10:51.673Z,17.80
2022-08-26T05:13:39.162Z,18.58
2022-08-26T05:16:25.220Z,18.02
2022-08-26T05:19:11.710Z,18.38
2022-08-26T05:21:58.005Z,18.95
2022-08-26T05:24:44.110Z,17.98
2022-08-26T05:27:30.233Z,18.20
2022-08-26T05:30:16.661Z,18.70
2022-08-26T05:33:03.602Z,17.70
2022-08-26T05:35:49.957Z,18.77
2022-08-26T05:38:36.343Z,17.65
2022-08-26T05:41:34.152Z,17.80
2022-08-26T05:44:22.372Z,17.38
2022-08-26T05:47:08.821Z,17.85
2022-08-26T05:49:55.431Z,17.05
2022-08-26T05:52:41.390Z,16.75
2022-08-26T05:55:27.375Z,18.17
2022-08-26T05:58:13.774Z,18.38
2022-08-26T06:01:05.565Z,17.98
2022-08-26T06:03:53.120Z,17.45
2022-08-26T06:06:41.726Z,18.05
2022-08-26T06:09:29.205Z,17.65
2022-08-26T06:12:16.513Z,17.33
2022-08-26T06:15:04.700Z,16.48
2022-08-26T06:17:51.653Z,16.23
2022-08-26T06:20:43.590Z,16.42
2022-08-26T06:24:01.322Z,18.60
2022-08-26T06:26:53.114Z,16.77
2022-08-26T06:29:39.067Z,16.85
2022-08-26T06:32:25.122Z,19.73
2022-08-26T06:35:12.161Z,16.77
2022-08-26T09:03:52.711Z,14.98
2022-08-26T09:06:44.413Z,13.77
2022-08-26T09:09:36.164Z,14.77
2022-08-26T09:12:29.777Z,14.52
2022-08-26T09:15:25.422Z,12.50
2022-08-26T09:18:35.325Z,12.85
2022-08-26T09:21:23.580Z,13.43
2022-08-26T09:24:13.865Z,12.82
2022-08-26T09:27:00.108Z,12.35
2022-08-26T09:29:46.352Z,11.88
2022-08-26T09:32:36.803Z,11.60
2022-08-26T09:35:31.077Z,11.27
2022-08-26T09:38:32.954Z,10.90
2022-08-26T09:41:24.941Z,10.60
2022-08-26T09:44:15.785Z,10.77
2022-08-26T09:47:05.279Z,9.13
2022-08-26T09:50:09.602Z,9.77
2022-08-26T09:53:21.027Z,10.15
2022-08-26T09:56:23.812Z,9.48
2022-08-26T09:59:12.135Z,9.50
2022-08-26T10:02:36.186Z,8.88
2022-08-26T10:05:31.159Z,7.07
2022-08-26T10:08:36.813Z,7.75
2022-08-26T10:11:35.266Z,7.63
2022-08-26T10:14:28.383Z,8.32
2022-08-26T10:17:23.638Z,8.30
2022-08-26T10:20:22.788Z,7.85
2022-08-26T10:23:18.094Z,7.90
2022-08-26T10:26:25.657Z,7.32
2022-08-26T10:29:36.156Z,7.30
2022-08-26T10:32:35.289Z,7.50
2022-08-26T10:35:27.152Z,7.05
2022-08-26T10:38:17.256Z,7.40
2022-08-26T10:41:15.896Z,7.80
2022-08-26T10:44:05.749Z,6.97
2022-08-26T10:46:56.908Z,6.70
2022-08-26T10:49:43.408Z,7.38
2022-08-26T10:52:39.321Z,7.18
2022-08-26T10:55:52.506Z,6.82
2022-08-26T10:58:56.296Z,6.65
2022-08-26T11:02:00.377Z,7.28
2022-08-26T11:04:56.964Z,7.20
2022-08-26T11:07:46.254Z,6.35
2022-08-26T11:10:38.295Z,6.85
2022-08-26T11:14:03.245Z,6.20
2022-08-26T11:16:54.384Z,6.72
2022-08-26T11:19:59.709Z,6.63
2022-08-26T11:22:47.968Z,7.07
2022-08-26T11:25:34.377Z,6.60
2022-08-26T11:28:34.400Z,6.50
2022-08-26T11:31:26.786Z,8.48
2022-08-26T11:34:14.020Z,8.45
2022-08-26T11:37:01.689Z,9.43
2022-08-26T11:39:55.612Z,9.25
2022-08-26T11:42:47.093Z,8.75
2022-08-26T11:46:02.977Z,7.00
2022-08-26T11:48:49.108Z,7.05
2022-08-26T11:51:40.365Z,6.30
2022-08-26T11:54:35.170Z,5.80
2022-08-26T11:57:21.833Z,5.68
2022-08-26T12:00:15.843Z,5.63
2022-08-26T12:03:08.101Z,4.63
2022-08-26T12:05:54.505Z,5.20
2022-08-26T12:08:43.881Z,7.68
2022-08-26T12:11:33.022Z,7.20
2022-08-26T12:14:22.262Z,4.68
2022-08-26T12:17:19.832Z,4.65
2022-08-26T12:20:56.389Z,4.50
2022-08-26T12:23:45.617Z,4.22
2022-08-26T12:26:35.771Z,4.50
2022-08-26T12:29:28.172Z,4.43
2022-08-26T12:32:17.867Z,5.03
2022-08-26T12:37:56.084Z,4.68
2022-08-26T12:40:45.269Z,5.00
2022-08-26T12:43:45.866Z,5.18
2022-08-26T12:46:31.945Z,4.15
2022-08-26T12:49:18.601Z,4.72
2022-08-26T12:52:06.345Z,4.38
2022-08-26T12:54:59.614Z,4.03
2022-08-26T12:57:47.350Z,4.72
2022-08-26T13:00:37.431Z,4.50
2022-08-26T13:03:37.306Z,4.47
2022-08-26T13:06:23.488Z,6.53
2022-08-26T13:09:09.301Z,4.00
2022-08-26T13:11:55.357Z,4.07
2022-08-26T13:14:41.209Z,5.47
2022-08-26T13:17:29.117Z,4.30
2022-08-26T13:20:15.101Z,4.15
2022-08-26T13:23:01.386Z,4.30
2022-08-26T13:25:47.420Z,4.00
2022-08-26T13:28:35.916Z,4.80
2022-08-26T13:31:22.736Z,4.63
2022-08-26T13:34:16.052Z,4.47
2022-08-26T13:37:02.032Z,6.72
2022-08-26T13:39:50.913Z,6.78
2022-08-26T13:42:37.308Z,5.53
2022-08-26T13:45:36.785Z,6.32
2022-08-26T13:48:23.709Z,6.28
2022-08-26T13:51:10.165Z,5.25
2022-08-26T13:53:57.980Z,5.93
2022-08-26T15:19:49.680Z,4.55
2022-08-26T15:22:37.212Z,4.75
2022-08-26T15:25:23.988Z,5.05
2022-08-26T15:28:12.865Z,5.45
2022-08-26T15:31:00.803Z,4.43
2022-08-26T15:33:47.519Z,4.50
2022-08-26T15:36:34.312Z,4.93
2022-08-26T15:39:20.922Z,4.50
2022-08-26T15:42:07.557Z,4.40
2022-08-26T15:44:54.666Z,3.92
2022-08-26T15:48:00.622Z,4.80
2022-08-26T15:50:55.335Z,4.60
2022-08-26T15:53:41.525Z,4.97
2022-08-26T15:56:31.552Z,4.43
2022-08-26T15:59:18.951Z,5.00
2022-08-26T16:02:05.589Z,4.78
2022-08-26T16:04:51.795Z,4.93
2022-08-26T16:07:40.542Z,4.72
2022-08-26T16:10:26.641Z,5.07
2022-08-26T16:13:14.758Z,5.10
2022-08-26T16:16:01.686Z,5.25
2022-08-26T16:18:50.144Z,5.25
2022-08-26T16:21:36.339Z,5.55
2022-08-26T16:24:25.997Z,5.18
2022-08-26T16:27:14.815Z,5.05
2022-08-26T16:30:00.940Z,4.78
2022-08-26T16:32:48.012Z,4.70
2022-08-26T16:35:34.374Z,4.97
2022-08-26T16:38:20.873Z,3.92
2022-08-26T16:41:08.270Z,4.20
2022-08-26T16:43:54.617Z,4.05
2022-08-26T16:46:41.224Z,4.38
2022-08-26T16:49:27.490Z,3.75
2022-08-26T16:52:14.067Z,4.40
2022-08-26T16:55:00.253Z,4.25
2022-08-26T16:57:46.284Z,4.53
2022-08-26T17:00:34.143Z,4.35
2022-08-26T17:03:20.189Z,4.10
2022-08-26T17:06:06.445Z,4.40
2022-08-26T17:08:53.122Z,4.20
2022-08-26T17:11:39.004Z,4.53
2022-08-26T17:14:25.210Z,4.80
2022-08-26T17:17:11.488Z,4.38
2022-08-26T17:19:57.564Z,3.92
2022-08-26T17:22:47.392Z,3.83
2022-08-26T17:25:33.577Z,4.45
2022-08-26T17:28:19.676Z,4.30
2022-08-26T17:31:09.362Z,4.00
2022-08-26T17:33:56.046Z,4.40
2022-08-26T17:36:42.124Z,4.70
2022-08-26T17:39:28.086Z,5.32
2022-08-26T17:42:14.407Z,5.78
2022-08-26T17:45:00.915Z,4.80
2022-08-26T17:47:47.321Z,5.85
2022-08-26T17:50:33.525Z,4.88
2022-08-26T17:53:19.977Z,5.85
2022-08-26T17:56:08.754Z,5.32
2022-08-26T17:58:56.972Z,5.15
2022-08-26T18:01:43.261Z,5.32
2022-08-26T18:04:29.215Z,5.45
2022-08-26T18:07:16.277Z,5.57
2022-08-26T18:10:05.045Z,6.20
2022-08-26T18:12:52.090Z,7.22
2022-08-26T18:15:42.443Z,6.07
2022-08-26T18:18:28.485Z,6.15
2022-08-26T18:21:20.350Z,5.97
2022-08-26T18:24:08.320Z,6.40
2022-08-26T18:26:57.592Z,6.55
2022-08-26T18:29:45.501Z,5.70
2022-08-26T18:32:31.543Z,7.18
2022-08-26T18:35:18.389Z,7.43
2022-08-26T18:38:11.295Z,6.63
2022-08-26T18:40:57.633Z,6.13
2022-08-26T18:43:43.646Z,6.43
2022-08-26T18:46:29.660Z,6.65
2022-08-26T18:49:17.605Z,7.10
2022-08-26T18:52:04.421Z,6.78
2022-08-26T18:54:50.585Z,7.55
2022-08-26T18:57:36.512Z,6.97
2022-08-26T19:00:22.805Z,6.45
2022-08-26T19:03:18.805Z,6.78
2022-08-26T19:06:05.449Z,6.22
2022-08-26T19:08:51.374Z,5.95
2022-08-26T19:11:42.814Z,7.63
2022-08-26T19:14:29.693Z,6.07
2022-08-26T19:17:15.625Z,5.85
2022-08-26T19:20:01.868Z,6.03
2022-08-26T19:22:48.088Z,7.28
2022-08-26T19:25:34.150Z,6.90
2022-08-26T19:28:21.778Z,6.82
2022-08-26T19:31:12.668Z,6.63
2022-08-26T19:33:59.065Z,6.78
2022-08-26T19:36:46.832Z,6.80
2022-08-26T19:39:33.074Z,6.55
2022-08-26T19:42:19.255Z,5.68
2022-08-26T19:45:20.253Z,5.82
2022-08-26T19:48:11.455Z,6.13
2022-08-26T19:50:57.439Z,6.10
2022-08-26T19:53:44.794Z,6.95
2022-08-26T19:56:30.951Z,6.20
2022-08-26T19:59:17.655Z,5.63
2022-08-26T20:02:10.063Z,5.35
2022-08-26T20:04:56.871Z,6.80
2022-08-26T20:07:43.749Z,5.97
2022-08-26T20:10:30.109Z,7.35
2022-08-26T20:13:16.103Z,6.28
2022-08-26T20:16:02.796Z,6.50
2022-08-26T20:19:07.185Z,7.28
2022-08-26T20:21:53.525Z,6.65
2022-08-26T20:24:39.651Z,6.80
2022-08-26T20:27:30.805Z,6.38
2022-08-26T20:30:24.713Z,6.40
2022-08-26T20:33:10.863Z,6.20
2022-08-26T20:35:56.756Z,6.60
2022-08-26T20:38:46.164Z,6.15
2022-08-26T20:41:32.999Z,6.38
2022-08-26T20:44:18.952Z,6.05
2022-08-26T20:47:05.534Z,7.05
2022-08-26T20:49:52.321Z,6.15
2022-08-26T20:52:38.972Z,5.70
2022-08-26T20:55:26.206Z,6.03
2022-08-26T20:58:12.185Z,5.72
2022-08-26T21:00:58.340Z,5.88
2022-08-26T21:03:44.787Z,6.10
2022-08-26T21:06:33.901Z,6.45
2022-08-26T21:09:21.247Z,5.68
2022-08-26T21:12:07.652Z,5.88
2022-08-26T21:14:54.076Z,6.35
2022-08-26T21:17:40.153Z,5.75
2022-08-26T21:20:26.328Z,6.15
2022-08-26T21:23:13.672Z,5.60
2022-08-26T21:26:04.855Z,5.85
2022-08-26T21:28:52.020Z,7.28
2022-08-26T21:31:42.163Z,6.32
2022-08-26T21:34:31.514Z,6.40
2022-08-26T21:37:17.849Z,5.70
2022-08-26T21:40:05.418Z,6.10
2022-08-26T21:42:51.616Z,5.93
2022-08-26T21:45:41.333Z,6.30
2022-08-26T21:48:32.212Z,5.90
2022-08-26T21:51:22.477Z,6.32
2022-08-26T21:54:11.379Z,6.50
2022-08-26T21:56:57.820Z,6.10
2022-08-26T21:59:43.663Z,6.13
2022-08-26T22:02:30.622Z,6.13
2022-08-26T22:05:16.698Z,6.43
2022-08-26T22:08:03.057Z,6.95
2022-08-26T22:10:52.019Z,6.63
2022-08-26T22:13:40.208Z,6.80
2022-08-26T22:16:28.685Z,6.93
2022-08-26T22:19:17.339Z,6.80
2022-08-26T22:22:04.107Z,6.68
2022-08-26T22:24:49.866Z,6.40
2022-08-26T22:27:40.483Z,6.63
2022-08-26T22:30:28.842Z,7.38
2022-08-26T22:33:15.465Z,6.63
2022-08-26T22:36:01.578Z,6.50
2022-08-26T22:38:48.165Z,6.22
2022-08-26T22:41:35.345Z,6.57
2022-08-26T22:44:22.299Z,6.75
2022-08-26T22:47:08.459Z,6.20
2022-08-26T22:49:54.452Z,7.10
2022-08-26T22:52:40.601Z,6.25
2022-08-26T22:55:26.798Z,6.95
2022-08-26T22:58:14.697Z,6.05
2022-08-26T23:01:01.043Z,6.03
2022-08-26T23:03:47.185Z,7.07
2022-08-26T23:06:38.709Z,6.18
2022-08-26T23:09:24.764Z,6.63
2022-08-26T23:12:10.675Z,5.95
2022-08-26T23:14:56.650Z,6.45
2022-08-26T23:17:42.512Z,6.70
2022-08-26T23:20:29.188Z,6.30
2022-08-26T23:23:15.260Z,6.38
2022-08-26T23:26:05.584Z,7.00
2022-08-26T23:28:53.401Z,6.80
2022-08-26T23:31:41.693Z,6.07
2022-08-26T23:34:45.968Z,6.40
2022-08-26T23:37:38.480Z,6.70
2022-08-26T23:40:32.737Z,6.45
2022-08-26T23:43:18.827Z,7.40
2022-08-26T23:46:04.932Z,6.22
2022-08-26T23:48:51.078Z,7.00
2022-08-26T23:51:56.699Z,6.38
2022-08-26T23:54:42.852Z,6.07
2022-08-26T23:57:29.174Z,6.53
